Time;durP1;ratioP1;P1;durP2;ratioP2;P2;SDS_P1;SDS_P2;PMS_P1;PMS_P2;Temp;Humidity;BMP_temperature;BMP_pressure;BME280_temperature;BME280_humidity;BME280_pressure;Samples;Min_cycle;Max_cycle;Signal;HPM_P1;HPM_P2
2022/01/07 00:01:11;;;;;;;33.70;16.40;;;;;;;-4.07;93.03;99488.02;105264;1271;75962;-75
2022/01/07 00:03:38;;;;;;;32.10;18.50;;;;;;;-4.07;93.14;99494.27;105008;1272;68574;-74
2022/01/07 00:06:05;;;;;;;30.70;17.70;;;;;;;-4.09;93.21;99492.71;105312;1271;73302;-75
2022/01/07 00:08:32;;;;;;;35.30;17.10;;;;;;;-4.11;93.38;99496.88;105224;1271;61224;-74
2022/01/07 00:10:59;;;;;;;35.40;17.10;;;;;;;-4.13;93.38;99495.83;105228;1271;61288;-75
2022/01/07 00:13:26;;;;;;;38.70;19.10;;;;;;;-4.18;93.49;99494.80;105180;1271;76186;-75
2022/01/07 00:15:54;;;;;;;32.10;16.70;;;;;;;-4.19;93.54;99500.34;104981;1271;67359;-76
2022/01/07 00:18:21;;;;;;;38.50;18.70;;;;;;;-4.20;93.78;99500.16;105449;1271;70559;-74
2022/01/07 00:20:48;;;;;;;44.60;23.60;;;;;;;-4.22;93.66;99501.39;105203;1271;61460;-74
2022/01/07 00:23:14;;;;;;;48.50;25.70;;;;;;;-4.24;93.83;99506.75;105266;1271;61365;-75
2022/01/07 00:25:41;;;;;;;55.20;27.10;;;;;;;-4.27;93.84;99508.31;105244;1271;76461;-77
2022/01/07 00:28:07;;;;;;;49.70;26.50;;;;;;;-4.29;93.99;99509.00;105286;1270;69194;-73
2022/01/07 00:30:36;;;;;;;46.00;24.20;;;;;;;-4.31;94.07;99509.18;105224;1271;73814;-75
2022/01/07 00:33:04;;;;;;;48.80;24.60;;;;;;;-4.30;94.14;99515.94;105127;1271;61300;-73
2022/01/07 00:35:30;;;;;;;53.80;26.80;;;;;;;-4.30;94.19;99516.63;105397;1271;61323;-77
2022/01/07 00:37:58;;;;;;;57.40;28.80;;;;;;;-4.31;94.23;99520.09;105418;1271;76266;-74
2022/01/07 00:40:26;;;;;;;53.10;27.40;;;;;;;-4.32;94.27;99519.06;105497;1271;69210;-74
2022/01/07 00:42:53;;;;;;;53.10;26.70;;;;;;;-4.33;94.31;99520.80;105448;1274;71307;-75
2022/01/07 00:45:22;;;;;;;39.30;21.90;;;;;;;-4.33;94.45;99521.67;105587;1271;61376;-75
2022/01/07 00:47:49;;;;;;;42.50;21.90;;;;;;;-4.33;94.49;99524.42;105648;1271;61948;-74
2022/01/07 00:50:18;;;;;;;43.20;21.70;;;;;;;-4.32;94.47;99526.50;105808;1271;75181;-75
2022/01/07 00:52:45;;;;;;;41.60;22.70;;;;;;;-4.32;94.49;99527.04;107478;1271;69392;-77
2022/01/07 00:55:13;;;;;;;51.40;21.90;;;;;;;-4.33;94.52;99527.20;107029;1271;73197;-75
2022/01/07 00:57:40;;;;;;;43.40;23.10;;;;;;;-4.34;94.62;99535.20;106071;1271;61220;-76
2022/01/07 01:00:11;;;;;;;55.80;28.40;;;;;;;-4.34;94.70;99537.29;105900;1271;61900;-74
2022/01/07 01:02:38;;;;;;;61.60;26.70;;;;;;;-4.35;94.60;99535.02;108296;1271;75335;-74
2022/01/07 01:05:08;;;;;;;58.00;25.90;;;;;;;-4.35;94.71;99535.02;108256;1271;69391;-74
2022/01/07 01:07:35;;;;;;;58.70;27.80;;;;;;;-4.36;94.78;99536.77;105781;1274;73218;-74
2022/01/07 01:10:07;;;;;;;57.40;28.10;;;;;;;-4.37;94.85;99534.30;105098;1271;179318;-75
2022/01/07 01:12:36;;;;;;;64.20;27.70;;;;;;;-4.38;94.86;99531.54;105063;1271;61179;-75
2022/01/07 01:15:05;;;;;;;61.30;27.90;;;;;;;-4.39;94.89;99533.96;105355;1271;75051;-74
2022/01/07 01:17:31;;;;;;;57.00;25.80;;;;;;;-4.42;94.96;99533.96;105004;1274;70241;-77
2022/01/07 01:19:58;;;;;;;56.10;27.20;;;;;;;-4.45;95.09;99532.55;105213;1271;61340;-76
2022/01/07 01:22:24;;;;;;;62.40;30.60;;;;;;;-4.49;95.17;99531.17;105011;1274;61273;-75
2022/01/07 01:24:51;;;;;;;54.50;29.00;;;;;;;-4.52;95.20;99529.61;105238;1271;61164;-76
2022/01/07 01:27:17;;;;;;;52.20;29.00;;;;;;;-4.57;95.40;99523.18;105243;1271;61301;-77
2022/01/07 01:29:44;;;;;;;52.30;30.50;;;;;;;-4.62;95.47;99522.46;105300;1271;61295;-75
2022/01/07 01:32:10;;;;;;;56.50;30.20;;;;;;;-4.66;95.52;99520.55;104977;1272;61281;-74
2022/01/07 01:34:37;;;;;;;60.40;29.20;;;;;;;-4.68;95.58;99518.80;105205;1271;61403;-76
2022/01/07 01:37:04;;;;;;;53.10;29.60;;;;;;;-4.72;95.64;99519.67;105238;1271;61371;-76
2022/01/07 01:39:31;;;;;;;56.10;29.80;;;;;;;-4.77;95.66;99522.61;104929;1271;75110;-73
2022/01/07 01:41:57;;;;;;;56.30;31.20;;;;;;;-4.81;95.68;99523.45;105213;1271;61236;-75
2022/01/07 01:44:24;;;;;;;59.70;33.80;;;;;;;-4.83;95.78;99525.17;105210;1271;73303;-73
2022/01/07 01:46:51;;;;;;;60.50;32.40;;;;;;;-4.87;95.95;99525.67;105197;1271;61314;-74
2022/01/07 01:49:18;;;;;;;61.70;33.20;;;;;;;-4.91;95.85;99522.91;105207;1271;61260;-73
2022/01/07 01:51:45;;;;;;;59.40;33.40;;;;;;;-4.96;95.75;99520.96;105201;1271;75978;-76
2022/01/07 01:54:11;;;;;;;54.10;31.80;;;;;;;-5.00;95.89;99515.06;104893;1274;70705;-73
2022/01/07 01:56:38;;;;;;;66.50;34.40;;;;;;;-5.03;96.14;99512.10;105198;1271;61258;-75
2022/01/07 01:59:05;;;;;;;59.40;33.10;;;;;;;-5.07;95.91;99510.36;104914;1271;61581;-75
2022/01/07 02:01:34;;;;;;;64.20;34.90;;;;;;;-5.09;95.89;99512.78;105069;1271;61167;-74
2022/01/07 02:04:01;;;;;;;64.50;35.70;;;;;;;-5.12;95.92;99514.33;105348;1271;76418;-74
2022/01/07 02:06:27;;;;;;;62.30;35.20;;;;;;;-5.15;96.03;99510.31;105015;1271;70246;-77
2022/01/07 02:08:54;;;;;;;61.50;34.10;;;;;;;-5.17;96.11;99508.23;105198;1271;74255;-75
2022/01/07 02:11:21;;;;;;;54.30;33.20;;;;;;;-5.21;96.08;99506.14;105193;1271;61285;-75
2022/01/07 02:13:48;;;;;;;56.20;34.40;;;;;;;-5.24;96.31;99497.46;105092;1271;61794;-74
2022/01/07 02:16:15;;;;;;;54.20;33.20;;;;;;;-5.27;96.26;99492.60;105191;1271;75447;-75
2022/01/07 02:18:43;;;;;;;57.50;32.70;;;;;;;-5.31;96.26;99491.20;105167;1272;68270;-75
2022/01/07 02:21:11;;;;;;;55.40;33.50;;;;;;;-5.34;96.35;99489.45;105181;1271;73091;-74
2022/01/07 02:23:37;;;;;;;63.20;34.30;;;;;;;-5.38;96.39;99492.02;105149;1271;61349;-75
2022/01/07 02:26:04;;;;;;;58.50;33.00;;;;;;;-5.42;96.58;99490.10;105065;1271;61285;-75
2022/01/07 02:28:34;;;;;;;59.80;34.00;;;;;;;-5.47;96.82;99489.21;105189;1271;76333;-75
2022/01/07 02:31:00;;;;;;;55.80;35.20;;;;;;;-5.50;96.92;99482.45;105174;1271;69153;-74
2022/01/07 02:33:27;;;;;;;60.10;37.90;;;;;;;-5.53;97.14;99479.31;105182;1271;73622;-74
2022/01/07 02:35:54;;;;;;;59.80;35.90;;;;;;;-5.56;96.93;99486.05;104966;1272;61259;-74
2022/01/07 02:38:20;;;;;;;60.10;35.90;;;;;;;-5.61;96.87;99491.21;105183;1272;61285;-77
2022/01/07 02:40:47;;;;;;;58.30;35.60;;;;;;;-5.64;96.96;99491.71;105217;1271;61310;-75
2022/01/07 02:43:13;;;;;;;57.90;35.60;;;;;;;-5.67;96.94;99492.91;104958;1271;67487;-74
2022/01/07 02:45:40;;;;;;;55.40;36.30;;;;;;;-5.71;97.17;99495.13;105152;1272;74363;-75
2022/01/07 02:48:06;;;;;;;59.30;36.30;;;;;;;-5.77;97.15;99496.99;105108;1271;61283;-73
2022/01/07 02:50:38;;;;;;;56.90;34.50;;;;;;;-5.82;97.31;99496.78;105148;1271;61358;-74
2022/01/07 02:53:08;;;;;;;53.80;32.50;;;;;;;-5.85;97.59;99501.09;105330;1271;76170;-75
2022/01/07 02:55:36;;;;;;;55.40;31.40;;;;;;;-5.86;97.65;99500.56;104922;1274;69633;-75
2022/01/07 02:58:04;;;;;;;47.10;28.10;;;;;;;-5.87;97.86;99502.80;105228;1271;73217;-74
2022/01/07 03:04:15;;;;;;;46.70;28.40;;;;;;;-5.84;97.99;99511.31;105212;1271;61364;-75
2022/01/07 03:06:42;;;;;;;52.80;28.30;;;;;;;-5.83;98.11;99509.75;105167;1271;76312;-76
2022/01/07 03:09:09;;;;;;;50.50;27.70;;;;;;;-5.82;98.25;99508.20;105176;1271;70449;-77
2022/01/07 03:11:35;;;;;;;43.90;27.70;;;;;;;-5.80;98.27;99510.98;105150;1271;74501;-76
2022/01/07 03:14:02;;;;;;;47.20;27.90;;;;;;;-5.80;98.21;99512.55;105179;1271;61437;-75
2022/01/07 03:16:29;;;;;;;44.50;26.20;;;;;;;-5.80;98.31;99509.42;105195;1271;61270;-77
2022/01/07 03:18:55;;;;;;;48.80;28.60;;;;;;;-5.82;98.44;99508.73;105195;1271;76667;-74
2022/01/07 03:21:22;;;;;;;48.30;27.80;;;;;;;-5.81;98.43;99510.64;105108;1271;61163;-75
2022/01/07 03:23:49;;;;;;;52.20;28.50;;;;;;;-5.81;98.42;99510.98;105135;1271;72650;-76
2022/01/07 03:26:15;;;;;;;49.70;28.70;;;;;;;-5.82;98.42;99511.15;105086;1271;61341;-75
2022/01/07 03:28:44;;;;;;;46.20;26.70;;;;;;;-5.83;98.58;99510.61;105151;1271;61753;-76
2022/01/07 03:31:11;;;;;;;44.70;26.60;;;;;;;-5.85;98.55;99508.70;105075;1271;75112;-74
2022/01/07 03:33:37;;;;;;;46.90;27.90;;;;;;;-5.88;98.58;99506.95;104816;1271;68083;-74
2022/01/07 03:36:04;;;;;;;51.10;30.90;;;;;;;-5.90;98.63;99504.50;105130;1271;61400;-76
2022/01/07 03:38:31;;;;;;;44.80;27.80;;;;;;;-5.90;98.53;99506.92;105129;1271;61272;-76
2022/01/07 03:40:58;;;;;;;44.60;28.20;;;;;;;-5.90;98.74;99509.52;105092;1271;61269;-74
2022/01/07 03:43:25;;;;;;;50.70;28.00;;;;;;;-5.92;98.76;99503.27;105268;1271;76362;-75
2022/01/07 03:45:51;;;;;;;52.50;29.70;;;;;;;-5.95;98.71;99497.06;105118;1271;69313;-75
2022/01/07 03:48:18;;;;;;;45.80;28.90;;;;;;;-5.97;98.90;99491.86;105594;1271;73803;-75
2022/01/07 03:50:45;;;;;;;42.70;28.70;;;;;;;-5.99;98.82;99488.73;106052;1271;61307;-75
2022/01/07 03:53:11;;;;;;;43.50;27.40;;;;;;;-6.00;98.94;99493.05;106146;1271;61768;-75
2022/01/07 03:55:38;;;;;;;36.50;25.20;;;;;;;-6.02;98.88;99491.65;105433;1271;76273;-76
2022/01/07 03:58:05;;;;;;;43.20;26.40;;;;;;;-6.03;98.91;99488.36;105183;1271;70588;-75
2022/01/07 04:00:37;;;;;;;42.90;26.70;;;;;;;-6.04;98.86;99487.14;105191;1271;74270;-75
2022/01/07 04:03:06;;;;;;;44.90;25.40;;;;;;;-6.04;98.95;99486.11;105182;1271;61311;-75
2022/01/07 04:05:33;;;;;;;41.70;25.60;;;;;;;-6.05;98.88;99488.34;105204;1271;61260;-75
2022/01/07 04:08:00;;;;;;;33.90;24.10;;;;;;;-6.07;99.10;99495.42;105191;1271;75196;-73
2022/01/07 04:10:27;;;;;;;38.60;24.40;;;;;;;-6.09;99.04;99500.41;105199;1271;69448;-77
2022/01/07 04:12:54;;;;;;;37.30;24.40;;;;;;;-6.09;99.04;99499.89;105093;1271;73314;-75
2022/01/07 04:15:23;;;;;;;40.20;25.00;;;;;;;-6.11;99.06;99497.98;104993;1271;61350;-74
2022/01/07 04:17:52;;;;;;;35.10;23.30;;;;;;;-6.11;98.94;99496.94;105175;1271;61345;-75
2022/01/07 04:20:24;;;;;;;40.50;23.20;;;;;;;-6.12;98.79;99498.83;105218;1271;75395;-74
2022/01/07 04:22:52;;;;;;;29.60;21.00;;;;;;;-6.13;98.89;99501.77;105319;1270;69274;-74
2022/01/07 04:25:20;;;;;;;32.30;20.90;;;;;;;-6.15;98.89;99497.42;105188;1271;74714;-74
2022/01/07 04:27:50;;;;;;;37.20;22.90;;;;;;;-6.15;98.93;99497.09;105206;1271;61470;-74
2022/01/07 04:30:17;;;;;;;;;;;;;;;-6.16;98.90;99496.73;105185;1271;61289;-75
2022/01/07 04:32:44;;;;;;;36.70;23.40;;;;;;;-6.18;98.90;99498.45;105194;1271;75348;-75
2022/01/07 04:35:14;;;;;;;39.40;23.10;;;;;;;-6.19;98.87;99501.38;105188;1271;69146;-75
2022/01/07 04:37:42;;;;;;;39.50;25.10;;;;;;;-6.22;98.66;99507.23;105159;1271;73360;-75
2022/01/07 04:40:11;;;;;;;49.40;29.60;;;;;;;-6.24;98.72;99507.21;105254;1271;61281;-76
2022/01/07 04:42:37;;;;;;;56.00;32.40;;;;;;;-6.27;98.96;99512.20;104899;1274;61418;-74
2022/01/07 04:45:08;;;;;;;64.30;37.40;;;;;;;-6.29;98.94;99513.04;105028;1270;76311;-76
2022/01/07 04:47:36;;;;;;;69.90;35.50;;;;;;;-6.32;98.95;99514.92;104972;1272;70831;-75
2022/01/07 04:50:06;;;;;;;67.40;36.50;;;;;;;-6.32;99.06;99511.63;105282;1271;74146;-74
2022/01/07 04:52:33;;;;;;;;;;;;;;;-6.33;99.09;99509.20;105321;1271;61231;-75
2022/01/07 04:54:59;;;;;;;71.00;37.40;;;;;;;-6.34;98.88;99508.69;105189;1271;61309;-74
2022/01/07 04:57:26;;;;;;;57.60;31.50;;;;;;;-6.33;98.90;99507.82;105201;1271;75457;-75
2022/01/07 04:59:53;;;;;;;59.40;34.90;;;;;;;-6.35;98.69;99504.34;105162;1271;68971;-75
2022/01/07 05:02:20;;;;;;;61.50;34.00;;;;;;;-6.37;98.81;99501.21;104364;1271;1003082;-74
2022/01/07 05:04:48;;;;;;;59.80;34.50;;;;;;;-6.38;98.92;99497.74;105198;1271;61255;-75
2022/01/07 05:07:16;;;;;;;60.80;31.00;;;;;;;-6.38;98.85;99495.67;105207;1271;61265;-75
2022/01/07 05:09:43;;;;;;;56.60;31.70;;;;;;;-6.37;98.79;99496.73;105014;1271;73312;-75
2022/01/07 05:12:10;;;;;;;50.30;29.30;;;;;;;-6.36;98.74;99492.58;104933;1274;70807;-73
2022/01/07 05:14:37;;;;;;;53.10;31.60;;;;;;;-6.36;98.66;99492.23;105189;1271;73698;-75
2022/01/07 05:17:04;;;;;;;53.60;30.40;;;;;;;-6.40;98.52;99497.03;105163;1271;61266;-75
2022/01/07 05:19:31;;;;;;;50.60;30.50;;;;;;;-6.44;98.50;99495.80;105154;1271;61955;-74
2022/01/07 05:21:57;;;;;;;52.40;29.70;;;;;;;-6.48;98.71;99498.34;105110;1271;75108;-76
2022/01/07 05:24:24;;;;;;;57.20;29.60;;;;;;;-6.53;98.75;99499.00;105140;1271;69229;-75
2022/01/07 05:26:50;;;;;;;56.30;30.50;;;;;;;-6.57;98.79;99501.19;105139;1271;72585;-75
2022/01/07 05:29:17;;;;;;;51.50;28.40;;;;;;;-6.62;98.82;99502.53;105079;1271;61378;-74
2022/01/07 05:31:44;;;;;;;58.70;32.20;;;;;;;-6.67;98.76;99501.45;104930;1272;61743;-74
2022/01/07 05:34:10;;;;;;;54.70;30.60;;;;;;;-6.71;98.89;99501.58;105167;1271;75640;-77
2022/01/07 05:36:38;;;;;;;46.30;29.10;;;;;;;-6.74;98.98;99499.82;105210;1271;70082;-74
2022/01/07 05:39:08;;;;;;;57.60;31.80;;;;;;;-6.76;99.01;99505.84;105201;1271;75029;-74
2022/01/07 05:41:35;;;;;;;58.50;29.70;;;;;;;-6.82;98.85;99509.91;105215;1271;61310;-75
2022/01/07 05:44:01;;;;;;;49.10;30.80;;;;;;;-6.86;99.04;99507.98;104432;1271;1003563;-76
2022/01/07 05:46:28;;;;;;;50.00;30.70;;;;;;;-6.91;98.88;99506.19;105136;1270;61273;-76
2022/01/07 05:48:55;;;;;;;52.00;29.40;;;;;;;-6.95;98.99;99497.00;105108;1271;68649;-76
2022/01/07 05:51:21;;;;;;;49.80;27.90;;;;;;;-6.96;99.10;99487.30;105175;1271;73139;-75
2022/01/07 05:53:48;;;;;;;49.80;29.20;;;;;;;-6.98;99.17;99487.63;105171;1271;61358;-75
2022/01/07 05:56:15;;;;;;;50.10;27.40;;;;;;;-6.99;99.10;99483.83;105188;1271;61230;-76
2022/01/07 05:58:41;;;;;;;51.70;30.00;;;;;;;-7.00;99.28;99487.10;104987;1271;61118;-75
2022/01/07 06:01:11;;;;;;;50.30;28.80;;;;;;;-6.99;99.25;99482.79;105183;1271;61349;-75
2022/01/07 06:03:39;;;;;;;47.60;26.00;;;;;;;-7.00;99.30;99475.51;105182;1269;73521;-74
2022/01/07 06:06:06;;;;;;;46.90;25.80;;;;;;;-7.01;99.45;99471.36;104473;1271;1003420;-75
2022/01/07 06:08:32;;;;;;;44.90;25.60;;;;;;;-7.00;99.56;99466.89;105167;1271;61210;-74
2022/01/07 06:10:59;;;;;;;46.60;25.90;;;;;;;-6.99;99.55;99468.98;105019;1271;61319;-75
2022/01/07 06:13:25;;;;;;;46.40;29.60;;;;;;;-6.98;99.55;99466.21;104242;1271;1003492;-76
2022/01/07 06:15:52;;;;;;;47.90;29.80;;;;;;;-6.96;99.59;99465.02;105149;1271;61298;-74
2022/01/07 06:18:18;;;;;;;48.30;28.90;;;;;;;-6.95;99.60;99461.26;105188;1271;61387;-76
2022/01/07 06:20:45;;;;;;;45.10;27.50;;;;;;;-6.94;99.44;99464.88;105129;1271;61463;-74
2022/01/07 06:23:11;;;;;;;51.60;32.40;;;;;;;-6.95;99.41;99461.06;105170;1271;61403;-75
2022/01/07 06:25:38;;;;;;;50.70;32.30;;;;;;;-6.95;99.57;99460.21;104437;1271;1002664;-75
2022/01/07 06:28:05;;;;;;;45.50;30.00;;;;;;;-6.96;99.37;99463.81;105077;1271;61371;-75
2022/01/07 06:30:31;;;;;;;53.60;32.60;;;;;;;-7.01;99.34;99460.66;104893;1271;61250;-75
2022/01/07 06:32:58;;;;;;;56.00;33.40;;;;;;;-7.05;99.35;99457.67;105184;1271;61342;-75
2022/01/07 06:35:25;;;;;;;55.20;33.60;;;;;;;-7.08;99.40;99463.19;105199;1271;74605;-73
2022/01/07 06:37:51;;;;;;;56.40;34.40;;;;;;;-7.07;99.49;99470.62;104886;1272;69222;-74
2022/01/07 06:40:18;;;;;;;61.70;38.10;;;;;;;-7.08;99.38;99478.38;105167;1271;61949;-74
2022/01/07 06:42:45;;;;;;;59.90;38.00;;;;;;;-7.10;99.33;99482.48;104999;1271;61378;-74
2022/01/07 06:45:11;;;;;;;51.50;34.10;;;;;;;-7.11;99.35;99482.98;105230;1271;62168;-74
2022/01/07 06:47:38;;;;;;;58.80;36.20;;;;;;;-7.09;99.46;99486.31;105197;1270;75398;-70
2022/01/07 06:50:06;;;;;;;54.50;33.70;;;;;;;-7.06;99.60;99483.06;104439;1271;1003079;-71
2022/01/07 06:52:33;;;;;;;47.60;32.30;;;;;;;-7.02;99.55;99483.95;105148;1271;71495;-69
2022/01/07 06:54:59;;;;;;;53.80;34.10;;;;;;;-7.00;99.56;99475.01;105256;1271;61555;-71
2022/01/07 06:57:26;;;;;;;51.60;33.00;;;;;;;-7.01;99.50;99474.98;105143;1271;61266;-71
2022/01/07 06:59:53;;;;;;;63.50;36.30;;;;;;;-7.02;99.46;99468.42;105214;1271;75966;-70
2022/01/07 07:02:20;;;;;;;55.30;35.20;;;;;;;-7.04;99.27;99468.73;105181;1271;69255;-70
2022/01/07 07:04:47;;;;;;;52.60;36.00;;;;;;;-7.03;99.21;99463.05;105183;1271;73356;-70
2022/01/07 07:07:14;;;;;;;62.80;39.60;;;;;;;-7.03;99.22;99464.61;105166;1271;61308;-70
2022/01/07 07:09:41;;;;;;;93.40;49.10;;;;;;;-7.00;99.23;99465.33;105279;1271;61873;-71
2022/01/07 07:12:08;;;;;;;99.00;54.40;;;;;;;-6.94;99.47;99466.43;105210;1271;75038;-70
2022/01/07 07:14:36;;;;;;;121.40;67.00;;;;;;;-6.88;99.59;99468.91;105359;1271;68778;-72
2022/01/07 07:17:03;;;;;;;87.90;49.20;;;;;;;-6.83;99.39;99472.77;105222;1271;74401;-72
2022/01/07 07:19:30;;;;;;;81.10;46.10;;;;;;;-6.81;99.46;99478.15;105191;1271;61268;-72
2022/01/07 07:21:56;;;;;;;81.60;43.20;;;;;;;-6.78;99.48;99478.52;104368;1271;1003351;-76
2022/01/07 07:24:23;;;;;;;87.90;44.60;;;;;;;-6.74;99.59;99478.73;106011;1271;61221;-78
2022/01/07 07:26:49;;;;;;;86.20;42.80;;;;;;;-6.71;99.50;99485.85;105314;1271;61298;-75
2022/01/07 07:29:16;;;;;;;92.70;48.00;;;;;;;-6.65;99.62;99484.19;105350;1271;61282;-76
2022/01/07 07:31:47;;;;;;;97.90;51.00;;;;;;;-6.57;99.66;99486.51;105318;1271;61315;-78
2022/01/07 07:34:31;;;;;;;88.30;46.80;;;;;;;-6.51;99.67;99486.91;105313;1271;61370;-76
2022/01/07 07:36:57;;;;;;;86.10;46.50;;;;;;;-6.44;99.66;99486.98;105003;1271;73429;-72
2022/01/07 07:39:24;;;;;;;114.70;61.40;;;;;;;-6.36;99.69;99484.27;105196;1271;69500;-73
2022/01/07 07:41:50;;;;;;;116.90;67.30;;;;;;;-6.27;99.83;99483.86;104957;1271;61340;-72
2022/01/07 07:44:17;;;;;;;97.00;56.40;;;;;;;-6.16;99.95;99483.06;105217;1271;61312;-72
2022/01/07 07:46:44;;;;;;;108.40;62.70;;;;;;;-6.07;99.96;99481.41;105245;1271;61157;-73
2022/01/07 07:49:11;;;;;;;97.80;60.50;;;;;;;-5.99;99.82;99473.17;105271;1271;72282;-72
2022/01/07 07:51:37;;;;;;;98.40;66.40;;;;;;;-5.90;99.74;99469.73;105197;1271;68913;-74
2022/01/07 07:54:05;;;;;;;103.60;61.60;;;;;;;-5.82;99.71;99471.00;104932;1271;73406;-70
2022/01/07 07:56:32;;;;;;;96.70;64.50;;;;;;;-5.74;99.79;99470.70;105262;1271;61391;-73
2022/01/07 07:58:59;;;;;;;95.10;60.60;;;;;;;-5.66;99.61;99467.46;105245;1271;61284;-72
2022/01/07 08:01:27;;;;;;;96.60;63.00;;;;;;;-5.59;99.62;99461.62;105239;1271;76239;-72
2022/01/07 08:03:53;;;;;;;93.10;57.00;;;;;;;-5.50;99.56;99458.55;105239;1271;70746;-72
2022/01/07 08:06:20;;;;;;;84.90;58.10;;;;;;;-5.41;99.56;99461.20;105241;1271;73299;-71
2022/01/07 08:08:47;;;;;;;85.80;56.90;;;;;;;-5.31;99.61;99458.11;105219;1271;61215;-72
2022/01/07 08:11:15;;;;;;;84.30;54.00;;;;;;;-5.25;99.44;99459.02;105222;1271;62036;-73
2022/01/07 08:16:27;;;;;;;80.60;52.30;;;;;;;-5.12;99.26;99453.85;105257;1271;69214;-72
2022/01/07 08:18:55;;;;;;;72.60;48.10;;;;;;;-5.05;99.31;99448.16;105230;1271;61306;-72
2022/01/07 08:21:25;;;;;;;77.60;49.30;;;;;;;-4.98;99.05;99451.14;105280;1271;61376;-72
2022/01/07 08:23:53;;;;;;;81.90;49.90;;;;;;;-4.91;98.91;99450.28;105337;1271;61390;-71
2022/01/07 08:26:21;;;;;;;80.90;49.40;;;;;;;-4.84;98.71;99451.01;105022;1271;74686;-71
2022/01/07 08:28:50;;;;;;;63.90;40.00;;;;;;;-4.77;98.41;99450.66;105208;1270;70249;-72
2022/01/07 08:36:46;;;;;;;75.50;45.40;;;;;;;-4.52;98.04;99456.77;105276;1271;61840;-73
2022/01/07 08:39:12;;;;;;;76.80;42.90;;;;;;;-4.43;98.12;99452.96;105190;1271;76071;-74
2022/01/07 08:41:40;;;;;;;67.50;42.50;;;;;;;-4.35;98.15;99456.09;105206;1271;67722;-72
2022/01/07 08:44:07;;;;;;;65.60;41.10;;;;;;;-4.28;98.21;99455.07;105489;1271;74188;-73
2022/01/07 08:46:34;;;;;;;73.70;42.70;;;;;;;-4.20;98.01;99452.30;105254;1271;61348;-71
2022/01/07 08:49:02;;;;;;;75.60;42.50;;;;;;;-4.12;97.92;99451.25;105237;1271;61317;-73
2022/01/07 08:51:28;;;;;;;69.00;40.30;;;;;;;-4.04;97.88;99451.75;105243;1270;74572;-72
2022/01/07 08:53:56;;;;;;;69.40;42.00;;;;;;;-3.96;97.79;99446.55;105279;1271;69375;-73
2022/01/07 08:56:24;;;;;;;70.00;38.80;;;;;;;-3.88;97.69;99448.61;105066;1271;72875;-71
2022/01/07 08:58:52;;;;;;;69.70;39.10;;;;;;;-3.79;97.64;99443.74;105262;1271;61274;-73
2022/01/07 09:01:20;;;;;;;66.70;37.50;;;;;;;-3.70;97.59;99438.34;105232;1271;61892;-74
2022/01/07 09:03:47;;;;;;;66.60;37.00;;;;;;;-3.62;97.58;99437.45;105218;1271;75371;-70
2022/01/07 09:06:13;;;;;;;59.30;33.80;;;;;;;-3.53;97.50;99439.52;103672;1271;1005037;-71
2022/01/07 09:08:40;;;;;;;67.50;35.30;;;;;;;-3.46;97.35;99436.70;105592;1271;72631;-70
2022/01/07 09:11:08;;;;;;;62.80;34.20;;;;;;;-3.36;97.32;99429.55;105467;1270;61264;-72
2022/01/07 09:13:34;;;;;;;59.40;31.90;;;;;;;-3.27;97.18;99429.69;105474;1271;61368;-73
2022/01/07 09:16:01;;;;;;;55.80;28.40;;;;;;;-3.19;96.54;99428.61;105198;1271;75092;-73
2022/01/07 09:18:27;;;;;;;51.80;28.50;;;;;;;-3.11;96.35;99423.88;105231;1271;70394;-71
2022/01/07 09:20:54;;;;;;;56.70;30.40;;;;;;;-3.01;96.59;99424.52;105213;1271;62116;-73
2022/01/07 09:23:21;;;;;;;51.00;26.60;;;;;;;-2.92;96.46;99429.86;105238;1271;61307;-74
2022/01/07 09:25:48;;;;;;;44.90;26.10;;;;;;;-2.84;96.06;99425.48;105037;1271;61409;-72
2022/01/07 09:28:14;;;;;;;44.90;23.10;;;;;;;-2.75;95.89;99428.02;105231;1270;61225;-72
2022/01/07 09:30:41;;;;;;;37.60;20.10;;;;;;;-2.66;95.36;99428.83;105242;1271;61374;-72
2022/01/07 09:33:07;;;;;;;32.80;17.50;;;;;;;-2.56;94.90;99424.77;105226;1271;61265;-72
2022/01/07 09:35:34;;;;;;;33.20;17.70;;;;;;;-2.50;94.33;99421.23;104964;1271;61448;-73
2022/01/07 09:38:00;;;;;;;34.20;18.50;;;;;;;-2.41;94.31;99415.44;105264;1271;61368;-72
2022/01/07 09:40:27;;;;;;;37.40;19.20;;;;;;;-2.31;94.02;99415.88;105220;1271;76459;-71
2022/01/07 09:43:02;;;;;;;34.20;17.60;;;;;;;-2.24;93.72;99409.38;105256;1271;69237;-72
2022/01/07 09:45:30;;;;;;;34.70;17.90;;;;;;;-2.16;93.03;99409.84;105029;1271;73331;-71
2022/01/07 09:47:58;;;;;;;35.10;18.40;;;;;;;-2.09;92.87;99409.59;105197;1271;61231;-73
2022/01/07 09:50:26;;;;;;;32.60;17.20;;;;;;;-2.02;92.36;99403.08;105035;1271;61297;-71
2022/01/07 09:52:53;;;;;;;38.50;20.70;;;;;;;-1.92;91.87;99407.52;104966;1271;74166;-74
2022/01/07 09:55:20;;;;;;;44.10;21.70;;;;;;;-1.84;91.88;99409.52;105232;1271;69478;-74
2022/01/07 09:57:47;;;;;;;43.60;21.70;;;;;;;-1.76;91.29;99406.48;105254;1271;74337;-76
2022/01/07 10:00:15;;;;;;;37.30;18.80;;;;;;;-1.68;91.06;99398.39;105046;1271;61429;-75
2022/01/07 10:03:06;;;;;;;44.40;22.40;;;;;;;-1.60;90.99;99397.25;104702;1271;61152;-73
2022/01/07 10:05:52;;;;;;;53.30;25.30;;;;;;;-1.50;90.70;99394.18;105237;1271;75266;-74
2022/01/07 10:08:23;;;;;;;54.40;26.40;;;;;;;-1.42;90.34;99387.98;105367;1271;69070;-74
2022/01/07 10:11:14;;;;;;;49.20;25.20;;;;;;;-1.33;89.96;99387.36;105247;1271;73161;-75
2022/01/07 10:13:45;;;;;;;51.70;25.20;;;;;;;-1.20;89.44;99385.09;105195;1271;61393;-75
2022/01/07 10:16:18;;;;;;;49.40;25.00;;;;;;;-1.11;89.51;99383.23;105240;1271;61222;-73
2022/01/07 10:18:47;;;;;;;53.50;26.90;;;;;;;-1.01;88.62;99384.66;104962;1271;75427;-73
2022/01/07 10:21:16;;;;;;;51.10;26.10;;;;;;;-0.94;88.62;99380.20;105178;1271;67334;-74
2022/01/07 10:23:44;;;;;;;48.10;24.70;;;;;;;-0.86;88.33;99383.23;105356;1271;74232;-74
2022/01/07 10:26:17;;;;;;;51.40;26.00;;;;;;;-0.79;87.98;99386.63;105280;1271;61351;-74
2022/01/07 10:28:46;;;;;;;63.50;30.00;;;;;;;-0.72;88.03;99386.67;105345;1271;61233;-75
2022/01/07 10:31:24;;;;;;;71.70;34.70;;;;;;;-0.65;87.67;99382.04;105425;1271;75387;-74
2022/01/07 10:33:53;;;;;;;63.80;32.00;;;;;;;-0.58;87.89;99379.48;105277;1271;69658;-73
2022/01/07 10:36:24;;;;;;;68.30;33.90;;;;;;;-0.50;87.61;99375.34;105115;1271;74029;-74
2022/01/07 10:39:06;;;;;;;65.50;34.10;;;;;;;-0.40;87.29;99372.06;105207;1271;61311;-75
2022/01/07 10:41:33;;;;;;;68.80;35.50;;;;;;;-0.30;86.53;99366.13;105241;1271;61298;-76
2022/01/07 10:44:08;;;;;;;77.40;35.80;;;;;;;-0.21;86.73;99362.66;105253;1271;76547;-73
2022/01/07 10:46:34;;;;;;;61.50;31.10;;;;;;;-0.12;86.64;99357.95;105453;1271;70120;-73
2022/01/07 10:49:04;;;;;;;62.60;31.30;;;;;;;-0.03;86.11;99351.16;105212;1271;74188;-75
2022/01/07 10:51:33;;;;;;;58.90;30.30;;;;;;;0.03;85.77;99349.11;105334;1270;61338;-74
2022/01/07 10:54:01;;;;;;;62.30;31.10;;;;;;;0.13;85.61;99339.15;105310;1271;61297;-73
2022/01/07 10:56:31;;;;;;;49.50;25.10;;;;;;;0.23;85.04;99332.66;105253;1271;76080;-75
2022/01/07 10:59:01;;;;;;;48.00;25.20;;;;;;;0.30;84.45;99322.73;105249;1270;68711;-75
2022/01/07 11:01:32;;;;;;;53.30;27.20;;;;;;;0.37;84.15;99320.85;105412;1271;74643;-76
2022/01/07 11:04:00;;;;;;;51.10;27.40;;;;;;;0.44;83.90;99321.91;105335;1271;61351;-76
2022/01/07 11:06:29;;;;;;;47.60;25.60;;;;;;;0.53;83.90;99312.48;105309;1271;61305;-75
2022/01/07 11:08:58;;;;;;;46.00;24.00;;;;;;;0.57;82.89;99312.23;105281;1271;76316;-76
2022/01/07 11:11:27;;;;;;;45.80;25.20;;;;;;;0.61;83.06;99307.77;105325;1271;70579;-73
2022/01/07 11:14:05;;;;;;;51.50;27.60;;;;;;;0.67;82.86;99302.91;105218;1271;73281;-76
2022/01/07 11:16:32;;;;;;;46.70;26.60;;;;;;;0.73;82.72;99304.88;105186;1270;61438;-75
2022/01/07 11:18:59;;;;;;;35.10;20.50;;;;;;;0.78;82.27;99299.52;105219;1271;61917;-72
2022/01/07 11:21:26;;;;;;;34.40;19.20;;;;;;;0.86;81.79;99300.39;105172;1271;76048;-75
2022/01/07 11:23:53;;;;;;;29.40;16.60;;;;;;;0.95;80.92;99295.98;104960;1271;68222;-76